createdAt,value
2022-10-17T00:00:51.412Z,64.71
2022-10-17T00:03:18.309Z,64.62
2022-10-17T00:05:46.758Z,64.64
2022-10-17T00:08:15.037Z,64.79
2022-10-17T00:10:41.887Z,64.91
2022-10-17T00:13:10.927Z,65.14
2022-10-17T00:15:37.689Z,64.83
2022-10-17T00:18:04.323Z,65.03
2022-10-17T00:20:31.288Z,64.94
2022-10-17T00:22:57.756Z,65.07
2022-10-17T00:25:24.243Z,65.05
2022-10-17T00:27:50.748Z,64.98
2022-10-17T00:30:17.296Z,65.06
2022-10-17T00:32:43.879Z,65.05
2022-10-17T00:35:10.432Z,64.90
2022-10-17T00:37:37.519Z,65.13
2022-10-17T00:40:05.819Z,64.98
2022-10-17T00:42:32.283Z,65.47
2022-10-17T00:45:00.522Z,65.15
2022-10-17T00:47:28.549Z,65.04
2022-10-17T00:49:55.348Z,65.18
2022-10-17T00:52:27.159Z,65.31
2022-10-17T00:55:00.276Z,65.59
2022-10-17T00:57:29.967Z,65.11
2022-10-17T00:59:58.137Z,65.13
2022-10-17T01:02:24.837Z,65.54
2022-10-17T01:04:53.770Z,65.02
2022-10-17T01:07:20.757Z,65.05
2022-10-17T01:09:48.702Z,65.00
2022-10-17T01:12:34.071Z,65.82
2022-10-17T01:15:18.750Z,65.78
2022-10-17T01:18:21.801Z,65.67
2022-10-17T01:21:09.935Z,65.28
2022-10-17T01:23:54.421Z,65.27
2022-10-17T01:26:39.068Z,65.43
2022-10-17T01:29:11.442Z,65.05
2022-10-17T01:32:16.365Z,65.43
2022-10-17T01:35:10.565Z,65.55
2022-10-17T01:38:01.542Z,65.45
2022-10-17T01:40:35.962Z,65.13
2022-10-17T01:43:21.307Z,65.57
2022-10-17T01:45:58.727Z,65.57
2022-10-17T01:48:32.940Z,65.38
2022-10-17T01:51:22.136Z,65.63
2022-10-17T01:54:00.929Z,65.56
2022-10-17T01:56:32.069Z,65.25
2022-10-17T01:59:04.716Z,65.57
2022-10-17T02:01:32.283Z,65.27
2022-10-17T02:04:02.714Z,65.27
2022-10-17T02:06:29.279Z,65.09
2022-10-17T02:08:56.530Z,65.22
2022-10-17T02:11:25.026Z,65.10
2022-10-17T02:14:19.035Z,65.31
2022-10-17T02:16:57.509Z,65.24
2022-10-17T02:19:46.299Z,65.10
2022-10-17T02:22:41.330Z,65.41
2022-10-17T02:25:14.645Z,65.02
2022-10-17T02:27:48.730Z,65.46
2022-10-17T02:30:28.258Z,65.58
2022-10-17T02:33:13.158Z,65.17
2022-10-17T02:35:46.481Z,65.71
2022-10-17T02:38:14.636Z,65.57
2022-10-17T02:40:45.438Z,65.69
2022-10-17T02:43:12.963Z,66.17
2022-10-17T02:45:40.547Z,66.43
2022-10-17T02:48:14.423Z,67.26
2022-10-17T02:50:53.814Z,67.60
2022-10-17T02:53:32.603Z,67.60
2022-10-17T02:56:06.125Z,66.91
2022-10-17T02:58:36.168Z,66.22
2022-10-17T03:01:05.057Z,66.29
2022-10-17T03:03:32.840Z,66.00
2022-10-17T03:06:01.491Z,66.03
2022-10-17T03:08:28.045Z,66.26
2022-10-17T03:10:55.794Z,66.46
2022-10-17T03:13:22.841Z,66.42
2022-10-17T03:15:49.827Z,66.52
2022-10-17T03:18:16.595Z,66.76
2022-10-17T03:20:44.080Z,66.72
2022-10-17T03:23:10.629Z,66.63
2022-10-17T03:25:37.180Z,66.59
2022-10-17T03:28:04.196Z,66.40
2022-10-17T03:30:31.355Z,66.53
2022-10-17T03:32:59.241Z,66.63
2022-10-17T03:35:27.420Z,66.53
2022-10-17T03:37:55.671Z,66.48
2022-10-17T03:40:23.517Z,66.37
2022-10-17T03:42:50.031Z,66.18
2022-10-17T03:45:16.556Z,66.13
2022-10-17T03:47:44.258Z,66.16
2022-10-17T03:50:11.036Z,66.02
2022-10-17T03:52:38.676Z,66.00
2022-10-17T03:55:05.703Z,66.13
2022-10-17T03:57:34.905Z,66.08
2022-10-17T04:00:04.207Z,66.12
2022-10-17T04:02:40.969Z,66.02
2022-10-17T04:05:10.339Z,65.87
2022-10-17T04:07:36.883Z,65.85
2022-10-17T04:10:05.245Z,65.82
2022-10-17T04:12:32.543Z,66.34
2022-10-17T04:14:59.291Z,65.72
2022-10-17T04:17:26.133Z,65.73
2022-10-17T04:19:52.777Z,65.72
2022-10-17T04:22:19.489Z,65.90
2022-10-17T04:24:46.675Z,65.87
2022-10-17T04:27:24.124Z,65.81
2022-10-17T04:29:50.650Z,65.79
2022-10-17T04:32:22.084Z,65.76
2022-10-17T04:34:54.395Z,65.65
2022-10-17T04:37:22.513Z,65.79
2022-10-17T04:39:50.972Z,65.60
2022-10-17T04:42:17.467Z,65.58
2022-10-17T04:44:44.031Z,65.56
2022-10-17T04:47:10.615Z,65.65
2022-10-17T04:49:38.746Z,66.34
2022-10-17T04:52:10.183Z,65.71
2022-10-17T04:54:44.586Z,65.69
2022-10-17T04:57:13.441Z,65.78
2022-10-17T04:59:41.719Z,65.76
2022-10-17T05:02:17.020Z,65.85
2022-10-17T05:04:44.883Z,66.42
2022-10-17T05:07:12.420Z,65.76
2022-10-17T05:09:45.124Z,65.73
2022-10-17T05:12:12.129Z,65.76
2022-10-17T05:14:42.253Z,65.81
2022-10-17T05:17:08.863Z,65.92
2022-10-17T05:19:35.596Z,65.79
2022-10-17T05:22:02.128Z,65.59
2022-10-17T05:24:29.079Z,65.59
2022-10-17T05:26:55.609Z,65.59
2022-10-17T05:29:22.514Z,65.56
2022-10-17T05:31:54.563Z,65.47
2022-10-17T05:34:21.124Z,65.56
2022-10-17T05:36:47.688Z,65.59
2022-10-17T05:39:17.912Z,65.58
2022-10-17T05:41:44.488Z,65.62
2022-10-17T05:44:11.074Z,65.55
2022-10-17T05:46:41.143Z,65.69
2022-10-17T05:49:19.680Z,65.66
2022-10-17T05:51:57.478Z,65.92
2022-10-17T05:54:26.183Z,66.06
2022-10-17T05:56:54.331Z,66.04
2022-10-17T05:59:26.914Z,66.23
2022-10-17T06:01:57.947Z,66.14
2022-10-17T06:04:24.648Z,66.37
2022-10-17T06:06:51.286Z,66.29
2022-10-17T06:09:17.931Z,66.33
2022-10-17T06:11:47.355Z,66.20
2022-10-17T06:14:14.654Z,66.25
2022-10-17T06:16:42.216Z,66.32
2022-10-17T06:19:09.282Z,66.29
2022-10-17T06:21:35.776Z,66.33
2022-10-17T06:24:08.202Z,66.34
2022-10-17T06:26:36.848Z,66.27
2022-10-17T06:29:06.229Z,66.27
2022-10-17T06:31:36.619Z,66.19
2022-10-17T06:34:03.081Z,66.32
2022-10-17T06:36:29.942Z,66.55
2022-10-17T06:38:56.547Z,66.52
2022-10-17T06:41:31.308Z,66.65
2022-10-17T06:44:03.961Z,66.65
2022-10-17T06:46:44.967Z,66.75
2022-10-17T06:49:15.119Z,66.82
2022-10-17T06:51:50.594Z,66.96
2022-10-17T06:54:20.483Z,66.87
2022-10-17T06:56:49.987Z,66.85
2022-10-17T06:59:37.105Z,66.89
2022-10-17T07:02:10.937Z,67.18
2022-10-17T07:04:38.272Z,67.35
2022-10-17T07:07:05.001Z,67.38
2022-10-17T07:09:34.095Z,67.67
2022-10-17T07:12:00.622Z,67.81
2022-10-17T07:14:27.228Z,67.96
2022-10-17T07:16:53.903Z,68.28
2022-10-17T07:19:23.758Z,68.54
2022-10-17T07:21:50.804Z,68.48
2022-10-17T07:24:17.500Z,68.47
2022-10-17T07:26:55.918Z,68.70
2022-10-17T07:29:22.641Z,68.86
2022-10-17T07:31:56.464Z,68.92
2022-10-17T07:34:23.218Z,68.95
2022-10-17T07:36:49.843Z,69.11
2022-10-17T07:39:16.491Z,69.09
2022-10-17T07:41:43.089Z,69.19
2022-10-17T07:44:10.341Z,69.06
2022-10-17T07:46:42.687Z,69.09
2022-10-17T07:49:09.266Z,69.05
2022-10-17T07:51:35.943Z,69.14
2022-10-17T07:54:02.737Z,69.19
2022-10-17T07:56:29.537Z,69.19
2022-10-17T08:01:43.832Z,69.59
2022-10-17T08:04:10.401Z,69.17
2022-10-17T08:06:37.004Z,69.38
2022-10-17T08:09:03.778Z,69.42
2022-10-17T08:11:30.339Z,69.56
2022-10-17T08:13:56.814Z,69.67
2022-10-17T08:16:23.426Z,69.62
2022-10-17T08:18:49.923Z,69.57
2022-10-17T08:21:16.385Z,69.85
2022-10-17T08:23:42.885Z,69.68
2022-10-17T08:26:11.078Z,69.59
2022-10-17T08:28:39.217Z,69.28
2022-10-17T08:31:13.404Z,68.93
2022-10-17T08:33:41.342Z,69.23
2022-10-17T08:36:08.998Z,69.09
2022-10-17T08:38:37.583Z,68.65
2022-10-17T08:41:41.904Z,66.77
2022-10-17T08:44:22.062Z,66.88
2022-10-17T08:46:52.049Z,67.50
2022-10-17T08:49:45.468Z,66.59
2022-10-17T08:52:22.552Z,66.12
2022-10-17T08:54:50.723Z,67.16
2022-10-17T08:57:17.498Z,66.99
2022-10-17T08:59:45.433Z,66.55
2022-10-17T09:02:23.844Z,65.72
2022-10-17T09:04:53.069Z,66.30
2022-10-17T09:07:30.646Z,64.28
2022-10-17T09:10:14.985Z,62.20
2022-10-17T09:12:48.421Z,61.94
2022-10-17T09:15:41.540Z,62.98
2022-10-17T09:18:24.145Z,62.11
2022-10-17T09:20:57.420Z,61.92
2022-10-17T09:23:33.538Z,60.79
2022-10-17T09:26:01.341Z,62.85
2022-10-17T09:28:33.897Z,60.62
2022-10-17T09:31:11.839Z,59.95
2022-10-17T09:33:55.646Z,62.88
2022-10-17T09:36:22.132Z,62.35
2022-10-17T09:38:55.278Z,61.00
2022-10-17T09:41:56.169Z,60.51
2022-10-17T09:44:24.861Z,56.67
2022-10-17T09:47:06.123Z,59.74
2022-10-17T09:49:38.361Z,60.25
2022-10-17T09:52:11.942Z,59.46
2022-10-17T09:54:45.245Z,58.39
2022-10-17T09:57:13.201Z,59.93
2022-10-17T09:59:41.332Z,57.03
2022-10-17T10:02:16.677Z,59.40
2022-10-17T10:05:04.686Z,57.04
2022-10-17T10:07:37.453Z,57.15
2022-10-17T10:10:07.619Z,56.88
2022-10-17T10:12:37.814Z,57.34
2022-10-17T10:15:31.086Z,57.14
2022-10-17T10:17:57.699Z,57.94
2022-10-17T10:20:34.288Z,56.53
2022-10-17T10:23:14.696Z,55.08
2022-10-17T10:25:59.273Z,56.24
2022-10-17T10:28:33.240Z,55.69
2022-10-17T10:31:07.677Z,54.39
2022-10-17T10:33:41.671Z,54.76
2022-10-17T10:36:08.901Z,55.75
2022-10-17T10:38:39.643Z,56.05
2022-10-17T10:41:09.293Z,55.47
2022-10-17T10:43:48.787Z,54.04
2022-10-17T10:46:22.943Z,54.71
2022-10-17T10:49:01.433Z,53.80
2022-10-17T10:51:41.205Z,53.48
2022-10-17T10:54:17.948Z,54.58
2022-10-17T10:56:53.384Z,53.50
2022-10-17T10:59:29.879Z,53.46
2022-10-17T11:02:04.142Z,53.51
2022-10-17T11:04:44.826Z,50.61
2022-10-17T11:07:23.422Z,52.38
2022-10-17T11:10:17.148Z,53.08
2022-10-17T11:12:50.564Z,52.11
2022-10-17T11:15:29.431Z,51.76
2022-10-17T11:18:08.473Z,50.36
2022-10-17T11:20:50.052Z,51.41
2022-10-17T11:23:18.987Z,51.11
2022-10-17T11:25:46.073Z,51.37
2022-10-17T11:28:19.412Z,50.09
2022-10-17T11:30:56.339Z,49.48
2022-10-17T11:33:54.414Z,49.69
2022-10-17T11:36:25.851Z,48.01
2022-10-17T11:38:58.511Z,46.99
2022-10-17T11:41:35.040Z,49.01
2022-10-17T11:44:15.228Z,48.16
2022-10-17T11:46:46.108Z,47.36
2022-10-17T11:49:40.243Z,48.35
2022-10-17T11:52:55.509Z,48.81
2022-10-17T11:55:27.342Z,49.59
2022-10-17T11:58:21.727Z,48.90
2022-10-17T12:01:16.157Z,48.35
2022-10-17T12:04:00.989Z,48.86
2022-10-17T12:07:09.895Z,47.84
2022-10-17T12:09:49.888Z,45.90
2022-10-17T12:12:28.814Z,46.49
2022-10-17T12:15:21.316Z,47.61
2022-10-17T12:17:56.295Z,48.28
2022-10-17T12:20:22.819Z,46.34
2022-10-17T12:22:56.712Z,45.88
2022-10-17T12:25:23.272Z,47.84
2022-10-17T12:27:51.085Z,45.92
2022-10-17T12:30:26.407Z,45.63
2022-10-17T12:33:06.242Z,46.06
2022-10-17T12:35:35.471Z,46.34
2022-10-17T12:38:23.909Z,46.04
2022-10-17T12:40:55.846Z,46.87
2022-10-17T12:43:28.136Z,45.24
2022-10-17T12:45:56.936Z,47.22
2022-10-17T12:48:38.740Z,46.58
2022-10-17T12:51:34.346Z,47.53
2022-10-17T12:54:15.374Z,46.22
2022-10-17T12:56:46.792Z,46.58
2022-10-17T12:59:19.794Z,46.31
2022-10-17T13:01:49.960Z,47.69
2022-10-17T13:04:17.731Z,47.34
2022-10-17T13:06:47.365Z,45.83
2022-10-17T13:09:32.519Z,44.51
2022-10-17T13:12:06.359Z,44.48
2022-10-17T13:14:34.075Z,46.06
2022-10-17T13:17:06.375Z,43.83
2022-10-17T13:19:44.546Z,45.50
2022-10-17T13:22:18.736Z,46.08
2022-10-17T13:24:46.279Z,46.31
2022-10-17T13:27:25.134Z,45.97
2022-10-17T13:29:51.768Z,46.10
2022-10-17T13:32:18.649Z,46.11
2022-10-17T13:34:45.250Z,45.39
2022-10-17T13:37:15.533Z,45.66
2022-10-17T13:39:54.771Z,45.58
2022-10-17T13:42:35.878Z,43.80
2022-10-17T13:45:03.620Z,45.26
2022-10-17T13:47:36.449Z,43.87
2022-10-17T13:50:12.708Z,44.43
2022-10-17T13:52:47.820Z,45.39
2022-10-17T13:55:17.877Z,44.81
2022-10-17T13:57:44.549Z,45.52
2022-10-17T14:00:20.441Z,43.92
2022-10-17T14:02:47.347Z,45.51
2022-10-17T14:05:18.541Z,44.88
2022-10-17T14:08:15.283Z,43.58
2022-10-17T14:10:44.533Z,45.45
2022-10-17T14:13:29.189Z,44.39
2022-10-17T14:15:59.236Z,45.11
2022-10-17T14:18:36.201Z,43.28
2022-10-17T14:21:37.244Z,45.34
2022-10-17T14:23:53.300Z,45.05
2022-10-17T14:26:23.272Z,44.42
2022-10-17T14:29:02.902Z,45.37
2022-10-17T14:31:34.948Z,43.76
2022-10-17T14:34:04.374Z,45.10
2022-10-17T14:36:38.611Z,43.88
2022-10-17T14:39:13.289Z,45.10
2022-10-17T14:41:44.492Z,44.33
2022-10-17T14:44:25.027Z,44.07
2022-10-17T14:46:55.953Z,45.13
2022-10-17T14:49:42.682Z,45.36
2022-10-17T14:52:30.786Z,45.43
2022-10-17T14:55:00.002Z,45.24
2022-10-17T14:57:39.857Z,44.82
2022-10-17T15:00:07.232Z,45.23
2022-10-17T15:02:33.948Z,45.60
2022-10-17T15:05:00.673Z,45.56
2022-10-17T15:07:27.185Z,45.58
2022-10-17T15:09:53.700Z,45.33
2022-10-17T15:12:23.072Z,45.39
2022-10-17T15:14:49.824Z,45.58
2022-10-17T15:17:19.231Z,46.06
2022-10-17T15:19:45.946Z,46.70
2022-10-17T15:22:13.237Z,47.58
2022-10-17T15:24:39.785Z,48.01
2022-10-17T15:27:17.936Z,48.42
2022-10-17T15:29:45.142Z,48.56
2022-10-17T15:32:11.829Z,48.31
2022-10-17T15:34:38.765Z,48.74
2022-10-17T15:37:06.924Z,49.01
2022-10-17T15:39:33.331Z,49.48
2022-10-17T15:41:59.871Z,49.68
2022-10-17T15:44:26.445Z,49.67
2022-10-17T15:46:55.557Z,49.72
2022-10-17T15:49:22.010Z,50.20
2022-10-17T15:51:51.723Z,50.28
2022-10-17T15:54:21.940Z,50.67
2022-10-17T15:56:53.971Z,50.60
2022-10-17T15:59:24.248Z,50.75
2022-10-17T16:01:50.720Z,51.08
2022-10-17T16:04:17.233Z,51.37
2022-10-17T16:06:43.700Z,51.50
2022-10-17T16:09:10.464Z,51.52
2022-10-17T16:11:42.499Z,51.64
2022-10-17T16:14:14.870Z,52.45
2022-10-17T16:16:41.714Z,52.36
2022-10-17T16:19:08.865Z,52.17
2022-10-17T16:21:37.967Z,52.69
2022-10-17T16:24:05.493Z,52.92
2022-10-17T16:26:32.341Z,52.77
2022-10-17T16:28:58.965Z,53.62
2022-10-17T16:31:28.669Z,53.95
2022-10-17T16:33:56.737Z,53.98
2022-10-17T16:36:23.646Z,54.45
2022-10-17T16:38:50.627Z,53.99
2022-10-17T16:41:30.579Z,55.29
2022-10-17T16:43:59.778Z,54.58
2022-10-17T16:46:28.127Z,54.97
2022-10-17T16:48:55.178Z,55.15
2022-10-17T16:51:22.222Z,55.24
2022-10-17T16:53:50.762Z,55.45
2022-10-17T16:56:19.887Z,55.93
2022-10-17T16:58:46.573Z,55.94
2022-10-17T17:01:16.217Z,56.02
2022-10-17T17:03:44.192Z,56.22
2022-10-17T17:06:19.802Z,57.04
2022-10-17T17:08:47.231Z,56.34
2022-10-17T17:11:15.682Z,56.33
2022-10-17T17:13:42.314Z,56.81
2022-10-17T17:16:12.962Z,57.21
2022-10-17T17:18:40.990Z,56.72
2022-10-17T17:21:08.611Z,57.40
2022-10-17T17:23:38.087Z,57.52
2022-10-17T17:26:10.711Z,58.26
2022-10-17T17:28:37.775Z,57.35
2022-10-17T17:31:08.199Z,58.03
2022-10-17T17:33:35.118Z,57.61
2022-10-17T17:36:02.202Z,57.89
2022-10-17T17:38:30.120Z,57.72
2022-10-17T17:40:56.834Z,57.92
2022-10-17T17:43:23.713Z,57.89
2022-10-17T17:45:50.312Z,58.12
2022-10-17T17:48:16.913Z,58.18
2022-10-17T17:50:44.440Z,58.08
2022-10-17T17:53:13.025Z,58.53
2022-10-17T17:55:39.959Z,58.33
2022-10-17T17:58:06.647Z,58.78
2022-10-17T18:00:33.259Z,58.97
2022-10-17T18:02:59.780Z,58.76
2022-10-17T18:05:26.480Z,58.86
2022-10-17T18:07:53.040Z,59.32
2022-10-17T18:10:19.631Z,59.30
2022-10-17T18:12:46.341Z,59.33
2022-10-17T18:15:13.156Z,59.33
2022-10-17T18:17:39.781Z,59.32
2022-10-17T18:20:07.360Z,59.57
2022-10-17T18:22:34.317Z,59.51
2022-10-17T18:25:00.839Z,59.60
2022-10-17T18:27:27.375Z,59.60
2022-10-17T18:29:53.912Z,59.76
2022-10-17T18:32:20.660Z,59.98
2022-10-17T18:34:47.130Z,59.84
2022-10-17T18:37:13.641Z,59.96
2022-10-17T18:39:40.116Z,59.94
2022-10-17T18:42:06.576Z,59.84
2022-10-17T18:44:33.051Z,59.86
2022-10-17T18:47:03.041Z,59.98
2022-10-17T18:49:31.093Z,59.93
2022-10-17T18:51:57.632Z,59.96
2022-10-17T18:54:24.093Z,60.28
2022-10-17T18:56:53.092Z,60.08
2022-10-17T18:59:20.954Z,60.05
2022-10-17T19:01:47.941Z,60.11
2022-10-17T19:04:15.053Z,60.17
2022-10-17T19:06:42.365Z,60.43
2022-10-17T19:09:10.708Z,60.46
2022-10-17T19:11:38.359Z,60.45
2022-10-17T19:14:07.313Z,60.26
2022-10-17T19:16:36.283Z,60.87
2022-10-17T19:19:10.875Z,61.59
2022-10-17T19:21:37.864Z,60.69
2022-10-17T19:24:07.333Z,61.19
2022-10-17T19:26:35.770Z,60.97
2022-10-17T19:29:02.751Z,60.79
2022-10-17T19:31:30.758Z,61.10
2022-10-17T19:33:57.734Z,60.94
2022-10-17T19:36:30.498Z,61.32
2022-10-17T19:39:05.214Z,61.13
2022-10-17T19:41:32.831Z,61.23
2022-10-17T19:44:00.387Z,61.25
2022-10-17T19:46:28.712Z,61.35
2022-10-17T19:48:55.607Z,61.43
2022-10-17T19:51:23.432Z,61.76
2022-10-17T19:53:51.324Z,61.70
2022-10-17T19:56:19.573Z,61.62
2022-10-17T19:58:47.264Z,61.67
2022-10-17T20:01:16.949Z,61.75
2022-10-17T20:03:43.724Z,61.79
2022-10-17T20:06:10.714Z,61.75
2022-10-17T20:08:38.872Z,61.72
2022-10-17T20:11:06.633Z,62.63
2022-10-17T20:13:35.956Z,61.90
2022-10-17T20:16:03.418Z,61.72
2022-10-17T20:18:29.948Z,61.71
2022-10-17T20:20:56.563Z,61.65
2022-10-17T20:23:23.126Z,61.70
2022-10-17T20:26:06.757Z,62.63
2022-10-17T20:28:45.693Z,61.84
2022-10-17T20:31:12.334Z,62.16
2022-10-17T20:33:38.943Z,61.98
2022-10-17T20:36:08.972Z,62.08
2022-10-17T20:38:35.856Z,62.07
2022-10-17T20:41:07.520Z,62.12
2022-10-17T20:43:34.964Z,62.28
2022-10-17T20:46:09.806Z,62.24
2022-10-17T20:48:42.455Z,62.10
2022-10-17T20:51:10.448Z,62.18
2022-10-17T20:53:37.967Z,62.06
2022-10-17T20:56:08.490Z,62.48
2022-10-17T20:58:35.662Z,62.22
2022-10-17T21:01:09.719Z,62.89
2022-10-17T21:03:39.818Z,62.10
2022-10-17T21:06:11.193Z,62.70
2022-10-17T21:08:38.107Z,62.43
2022-10-17T21:11:16.146Z,63.17
2022-10-17T21:13:43.078Z,62.75
2022-10-17T21:16:20.076Z,62.49
2022-10-17T21:18:46.636Z,62.36
2022-10-17T21:21:14.371Z,62.60
2022-10-17T21:23:43.362Z,62.49
2022-10-17T21:26:11.001Z,62.55
2022-10-17T21:28:37.662Z,62.53
2022-10-17T21:31:25.117Z,63.51
2022-10-17T21:33:57.945Z,62.76
2022-10-17T21:36:25.751Z,62.59
2022-10-17T21:38:54.515Z,62.71
2022-10-17T21:41:23.381Z,62.63
2022-10-17T21:43:59.443Z,63.37
2022-10-17T21:46:26.399Z,62.80
2022-10-17T21:48:53.090Z,62.78
2022-10-17T21:51:22.361Z,62.96
2022-10-17T21:53:49.960Z,62.95
2022-10-17T21:56:18.991Z,63.07
2022-10-17T21:58:45.888Z,62.97
2022-10-17T22:01:18.790Z,63.48
2022-10-17T22:03:47.818Z,62.94
2022-10-17T22:09:04.875Z,62.83
2022-10-17T22:11:33.718Z,63.10
2022-10-17T22:14:06.435Z,62.99
2022-10-17T22:16:33.625Z,62.84
2022-10-17T22:19:05.874Z,63.16
2022-10-17T22:21:34.661Z,63.14
2022-10-17T22:24:04.361Z,63.13
2022-10-17T22:26:32.707Z,63.15
2022-10-17T22:28:59.451Z,63.21
2022-10-17T22:31:26.486Z,63.16
2022-10-17T22:33:53.333Z,63.34
2022-10-17T22:36:20.218Z,63.57
2022-10-17T22:38:46.856Z,63.34
2022-10-17T22:41:13.364Z,63.40
2022-10-17T22:43:40.007Z,63.46
2022-10-17T22:46:07.405Z,63.46
2022-10-17T22:48:34.395Z,63.55
2022-10-17T22:51:01.717Z,63.50
2022-10-17T22:53:28.811Z,63.51
2022-10-17T22:56:04.052Z,64.35
2022-10-17T22:58:31.948Z,63.46
2022-10-17T23:00:58.712Z,63.69
2022-10-17T23:03:27.908Z,63.57
2022-10-17T23:05:54.471Z,63.54
2022-10-17T23:08:21.326Z,63.64
2022-10-17T23:10:48.376Z,63.55
2022-10-17T23:13:15.614Z,63.73
2022-10-17T23:15:42.838Z,63.68
2022-10-17T23:18:09.576Z,63.57
2022-10-17T23:20:37.764Z,63.76
2022-10-17T23:23:04.636Z,64.19
2022-10-17T23:25:33.682Z,63.77
2022-10-17T23:28:00.791Z,63.53
2022-10-17T23:30:27.610Z,63.51
2022-10-17T23:32:54.070Z,63.70
2022-10-17T23:35:20.547Z,63.69
2022-10-17T23:37:47.091Z,63.65
2022-10-17T23:40:13.782Z,63.88
2022-10-17T23:42:40.346Z,63.78
2022-10-17T23:45:07.590Z,63.68
2022-10-17T23:47:34.349Z,64.13
2022-10-17T23:50:01.142Z,63.78
2022-10-17T23:52:27.737Z,63.84
2022-10-17T23:54:54.229Z,63.84
2022-10-17T23:57:20.689Z,63.84
2022-10-17T23:59:47.312Z,63.73
